sensor_id;sensor_type;location;lat;lon;timestamp;P1;durP1;ratioP1;P2;durP2;ratioP2
21876;SDS011;11103;43.788;23.710;2023-03-31T00:00:42;25.87;;;14.47;;
21876;SDS011;11103;43.788;23.710;2023-03-31T00:03:08;25.37;;;15.63;;
21876;SDS011;11103;43.788;23.710;2023-03-31T00:05:46;25.03;;;13.83;;
21876;SDS011;11103;43.788;23.710;2023-03-31T00:08:12;29.70;;;14.73;;
21876;SDS011;11103;43.788;23.710;2023-03-31T00:10:42;24.37;;;14.17;;
21876;SDS011;11103;43.788;23.710;2023-03-31T00:13:09;28.87;;;14.47;;
21876;SDS011;11103;43.788;23.710;2023-03-31T00:15:35;26.57;;;13.10;;
21876;SDS011;11103;43.788;23.710;2023-03-31T00:18:00;23.87;;;13.03;;
21876;SDS011;11103;43.788;23.710;2023-03-31T00:20:26;21.50;;;11.53;;
21876;SDS011;11103;43.788;23.710;2023-03-31T00:22:52;22.73;;;12.10;;
21876;SDS011;11103;43.788;23.710;2023-03-31T00:25:18;19.53;;;11.00;;
21876;SDS011;11103;43.788;23.710;2023-03-31T00:27:44;18.00;;;11.37;;
21876;SDS011;11103;43.788;23.710;2023-03-31T00:30:14;22.23;;;12.93;;
21876;SDS011;11103;43.788;23.710;2023-03-31T00:32:39;26.67;;;13.63;;
21876;SDS011;11103;43.788;23.710;2023-03-31T00:35:05;19.43;;;9.60;;
21876;SDS011;11103;43.788;23.710;2023-03-31T00:37:31;14.33;;;9.17;;
21876;SDS011;11103;43.788;23.710;2023-03-31T00:39:58;15.00;;;9.47;;
21876;SDS011;11103;43.788;23.710;2023-03-31T00:42:24;22.77;;;12.23;;
21876;SDS011;11103;43.788;23.710;2023-03-31T00:47:37;20.60;;;11.43;;
21876;SDS011;11103;43.788;23.710;2023-03-31T00:50:12;16.03;;;10.50;;
21876;SDS011;11103;43.788;23.710;2023-03-31T00:52:43;22.40;;;10.90;;
21876;SDS011;11103;43.788;23.710;2023-03-31T00:55:13;17.20;;;10.03;;
21876;SDS011;11103;43.788;23.710;2023-03-31T00:57:42;16.67;;;10.03;;
21876;SDS011;11103;43.788;23.710;2023-03-31T01:00:11;17.33;;;10.07;;
21876;SDS011;11103;43.788;23.710;2023-03-31T01:02:42;20.10;;;10.33;;
21876;SDS011;11103;43.788;23.710;2023-03-31T01:05:17;15.73;;;10.03;;
21876;SDS011;11103;43.788;23.710;2023-03-31T01:07:45;20.93;;;11.00;;
21876;SDS011;11103;43.788;23.710;2023-03-31T01:10:12;17.43;;;10.67;;
21876;SDS011;11103;43.788;23.710;2023-03-31T01:12:43;16.20;;;10.60;;
21876;SDS011;11103;43.788;23.710;2023-03-31T01:15:12;17.10;;;10.40;;
21876;SDS011;11103;43.788;23.710;2023-03-31T01:17:38;22.83;;;11.80;;
21876;SDS011;11103;43.788;23.710;2023-03-31T01:29:01;15.13;;;9.80;;
21876;SDS011;11103;43.788;23.710;2023-03-31T01:42:43;15.23;;;10.03;;
21876;SDS011;11103;43.788;23.710;2023-03-31T01:48:06;14.97;;;10.33;;
21876;SDS011;11103;43.788;23.710;2023-03-31T01:50:42;14.57;;;10.33;;
21876;SDS011;11103;43.788;23.710;2023-03-31T01:56:18;19.83;;;11.33;;
21876;SDS011;11103;43.788;23.710;2023-03-31T02:01:21;21.60;;;11.77;;
21876;SDS011;11103;43.788;23.710;2023-03-31T02:04:13;20.47;;;11.87;;
21876;SDS011;11103;43.788;23.710;2023-03-31T02:06:44;17.97;;;11.57;;
21876;SDS011;11103;43.788;23.710;2023-03-31T02:09:18;22.67;;;13.30;;
21876;SDS011;11103;43.788;23.710;2023-03-31T02:11:46;18.23;;;11.47;;
21876;SDS011;11103;43.788;23.710;2023-03-31T02:14:14;20.30;;;12.40;;
21876;SDS011;11103;43.788;23.710;2023-03-31T02:16:46;15.93;;;11.10;;
21876;SDS011;11103;43.788;23.710;2023-03-31T02:19:14;16.27;;;10.73;;
21876;SDS011;11103;43.788;23.710;2023-03-31T02:21:42;15.07;;;10.47;;
21876;SDS011;11103;43.788;23.710;2023-03-31T02:24:12;18.00;;;10.33;;
21876;SDS011;11103;43.788;23.710;2023-03-31T02:26:48;18.40;;;10.27;;
21876;SDS011;11103;43.788;23.710;2023-03-31T02:29:18;18.37;;;10.80;;
21876;SDS011;11103;43.788;23.710;2023-03-31T02:35:05;13.13;;;9.67;;
21876;SDS011;11103;43.788;23.710;2023-03-31T02:37:34;15.37;;;9.37;;
21876;SDS011;11103;43.788;23.710;2023-03-31T02:40:00;13.90;;;9.77;;
21876;SDS011;11103;43.788;23.710;2023-03-31T02:42:30;12.33;;;9.47;;
21876;SDS011;11103;43.788;23.710;2023-03-31T02:45:05;12.23;;;8.90;;
21876;SDS011;11103;43.788;23.710;2023-03-31T02:47:51;16.77;;;10.50;;
21876;SDS011;11103;43.788;23.710;2023-03-31T02:50:16;16.77;;;10.77;;
21876;SDS011;11103;43.788;23.710;2023-03-31T02:55:33;13.67;;;10.00;;
21876;SDS011;11103;43.788;23.710;2023-03-31T03:01:19;13.63;;;8.57;;
21876;SDS011;11103;43.788;23.710;2023-03-31T03:04:04;10.90;;;9.00;;
21876;SDS011;11103;43.788;23.710;2023-03-31T03:09:12;16.00;;;8.90;;
21876;SDS011;11103;43.788;23.710;2023-03-31T03:11:57;13.40;;;8.53;;
21876;SDS011;11103;43.788;23.710;2023-03-31T03:14:51;13.60;;;8.97;;
21876;SDS011;11103;43.788;23.710;2023-03-31T03:19:58;10.30;;;7.63;;
21876;SDS011;11103;43.788;23.710;2023-03-31T03:22:25;11.30;;;8.30;;
21876;SDS011;11103;43.788;23.710;2023-03-31T03:24:51;12.50;;;8.67;;
21876;SDS011;11103;43.788;23.710;2023-03-31T03:27:16;12.93;;;8.03;;
21876;SDS011;11103;43.788;23.710;2023-03-31T03:29:42;11.90;;;8.80;;
21876;SDS011;11103;43.788;23.710;2023-03-31T03:32:08;14.17;;;10.07;;
21876;SDS011;11103;43.788;23.710;2023-03-31T03:34:34;14.20;;;10.03;;
21876;SDS011;11103;43.788;23.710;2023-03-31T03:37:00;20.77;;;10.97;;
21876;SDS011;11103;43.788;23.710;2023-03-31T03:39:25;16.53;;;10.60;;
21876;SDS011;11103;43.788;23.710;2023-03-31T03:41:51;14.70;;;10.50;;
21876;SDS011;11103;43.788;23.710;2023-03-31T03:44:16;14.13;;;10.17;;
21876;SDS011;11103;43.788;23.710;2023-03-31T03:46:42;15.80;;;9.40;;
21876;SDS011;11103;43.788;23.710;2023-03-31T03:49:07;11.87;;;9.17;;
21876;SDS011;11103;43.788;23.710;2023-03-31T03:51:32;39.53;;;21.87;;
21876;SDS011;11103;43.788;23.710;2023-03-31T03:53:58;21.80;;;14.30;;
21876;SDS011;11103;43.788;23.710;2023-03-31T03:56:23;14.13;;;9.13;;
21876;SDS011;11103;43.788;23.710;2023-03-31T03:58:50;13.17;;;8.40;;
21876;SDS011;11103;43.788;23.710;2023-03-31T04:01:16;11.00;;;7.40;;
21876;SDS011;11103;43.788;23.710;2023-03-31T04:03:42;10.23;;;8.07;;
21876;SDS011;11103;43.788;23.710;2023-03-31T04:06:08;49.43;;;14.97;;
21876;SDS011;11103;43.788;23.710;2023-03-31T04:08:33;22.07;;;13.60;;
21876;SDS011;11103;43.788;23.710;2023-03-31T04:10:59;29.07;;;16.40;;
21876;SDS011;11103;43.788;23.710;2023-03-31T04:13:24;15.17;;;10.00;;
21876;SDS011;11103;43.788;23.710;2023-03-31T04:15:50;17.30;;;10.40;;
21876;SDS011;11103;43.788;23.710;2023-03-31T04:18:15;16.10;;;11.97;;
21876;SDS011;11103;43.788;23.710;2023-03-31T04:20:50;12.80;;;9.67;;
21876;SDS011;11103;43.788;23.710;2023-03-31T04:23:31;16.90;;;9.77;;
21876;SDS011;11103;43.788;23.710;2023-03-31T04:26:02;13.13;;;8.83;;
21876;SDS011;11103;43.788;23.710;2023-03-31T04:28:32;14.70;;;9.00;;
21876;SDS011;11103;43.788;23.710;2023-03-31T04:30:59;12.73;;;8.70;;
21876;SDS011;11103;43.788;23.710;2023-03-31T04:33:25;12.03;;;9.10;;
21876;SDS011;11103;43.788;23.710;2023-03-31T04:35:50;12.83;;;8.23;;
21876;SDS011;11103;43.788;23.710;2023-03-31T04:38:20;14.90;;;9.23;;
21876;SDS011;11103;43.788;23.710;2023-03-31T04:40:48;13.50;;;8.90;;
21876;SDS011;11103;43.788;23.710;2023-03-31T04:43:15;25.67;;;15.10;;
21876;SDS011;11103;43.788;23.710;2023-03-31T04:45:42;18.20;;;11.90;;
21876;SDS011;11103;43.788;23.710;2023-03-31T04:48:07;25.30;;;15.67;;
21876;SDS011;11103;43.788;23.710;2023-03-31T04:50:33;21.07;;;14.13;;
21876;SDS011;11103;43.788;23.710;2023-03-31T04:52:59;16.50;;;10.50;;
21876;SDS011;11103;43.788;23.710;2023-03-31T04:55:25;18.63;;;10.97;;
21876;SDS011;11103;43.788;23.710;2023-03-31T04:57:51;22.53;;;11.97;;
21876;SDS011;11103;43.788;23.710;2023-03-31T05:00:16;17.43;;;11.37;;
21876;SDS011;11103;43.788;23.710;2023-03-31T05:02:43;16.50;;;9.77;;
21876;SDS011;11103;43.788;23.710;2023-03-31T05:05:08;20.83;;;9.63;;
21876;SDS011;11103;43.788;23.710;2023-03-31T05:07:36;18.37;;;9.97;;
21876;SDS011;11103;43.788;23.710;2023-03-31T05:10:03;16.70;;;9.53;;
21876;SDS011;11103;43.788;23.710;2023-03-31T05:12:32;17.03;;;9.60;;
21876;SDS011;11103;43.788;23.710;2023-03-31T05:14:59;17.70;;;10.23;;
21876;SDS011;11103;43.788;23.710;2023-03-31T05:17:24;16.43;;;9.43;;
21876;SDS011;11103;43.788;23.710;2023-03-31T05:19:49;15.27;;;10.00;;
21876;SDS011;11103;43.788;23.710;2023-03-31T05:22:15;16.47;;;9.60;;
21876;SDS011;11103;43.788;23.710;2023-03-31T05:24:44;17.33;;;10.43;;
21876;SDS011;11103;43.788;23.710;2023-03-31T05:27:10;16.30;;;9.73;;
21876;SDS011;11103;43.788;23.710;2023-03-31T05:29:35;14.33;;;9.13;;
21876;SDS011;11103;43.788;23.710;2023-03-31T05:32:01;15.30;;;9.37;;
21876;SDS011;11103;43.788;23.710;2023-03-31T05:34:27;11.90;;;8.97;;
21876;SDS011;11103;43.788;23.710;2023-03-31T05:36:52;13.80;;;9.90;;
21876;SDS011;11103;43.788;23.710;2023-03-31T05:39:18;12.30;;;9.53;;
21876;SDS011;11103;43.788;23.710;2023-03-31T05:41:43;14.07;;;10.03;;
21876;SDS011;11103;43.788;23.710;2023-03-31T05:44:09;13.90;;;10.40;;
21876;SDS011;11103;43.788;23.710;2023-03-31T05:46:35;19.60;;;12.33;;
21876;SDS011;11103;43.788;23.710;2023-03-31T05:49:00;35.93;;;19.97;;
21876;SDS011;11103;43.788;23.710;2023-03-31T05:51:26;34.87;;;19.30;;
21876;SDS011;11103;43.788;23.710;2023-03-31T05:53:52;26.13;;;16.10;;
21876;SDS011;11103;43.788;23.710;2023-03-31T05:56:17;25.87;;;14.50;;
21876;SDS011;11103;43.788;23.710;2023-03-31T05:58:43;21.37;;;12.90;;
21876;SDS011;11103;43.788;23.710;2023-03-31T06:01:09;22.80;;;13.13;;
21876;SDS011;11103;43.788;23.710;2023-03-31T06:03:37;20.60;;;12.03;;
21876;SDS011;11103;43.788;23.710;2023-03-31T06:06:07;16.23;;;11.10;;
21876;SDS011;11103;43.788;23.710;2023-03-31T06:08:34;28.50;;;16.57;;
21876;SDS011;11103;43.788;23.710;2023-03-31T06:11:03;23.70;;;14.20;;
21876;SDS011;11103;43.788;23.710;2023-03-31T06:13:30;18.87;;;12.27;;
21876;SDS011;11103;43.788;23.710;2023-03-31T06:15:56;15.07;;;10.93;;
21876;SDS011;11103;43.788;23.710;2023-03-31T06:18:23;14.23;;;10.17;;
21876;SDS011;11103;43.788;23.710;2023-03-31T06:20:52;14.63;;;9.07;;
21876;SDS011;11103;43.788;23.710;2023-03-31T06:23:18;14.40;;;9.00;;
21876;SDS011;11103;43.788;23.710;2023-03-31T06:25:44;13.70;;;8.40;;
21876;SDS011;11103;43.788;23.710;2023-03-31T06:28:10;11.50;;;8.07;;
21876;SDS011;11103;43.788;23.710;2023-03-31T06:30:35;17.20;;;9.57;;
21876;SDS011;11103;43.788;23.710;2023-03-31T06:33:01;13.37;;;8.20;;
21876;SDS011;11103;43.788;23.710;2023-03-31T06:35:26;12.23;;;7.80;;
21876;SDS011;11103;43.788;23.710;2023-03-31T06:37:52;10.37;;;7.53;;
21876;SDS011;11103;43.788;23.710;2023-03-31T06:40:17;14.00;;;8.00;;
21876;SDS011;11103;43.788;23.710;2023-03-31T06:42:43;12.20;;;8.37;;
21876;SDS011;11103;43.788;23.710;2023-03-31T06:45:09;11.90;;;7.97;;
21876;SDS011;11103;43.788;23.710;2023-03-31T06:47:34;13.27;;;7.90;;
21876;SDS011;11103;43.788;23.710;2023-03-31T06:50:02;15.50;;;8.33;;
21876;SDS011;11103;43.788;23.710;2023-03-31T06:52:29;11.00;;;7.43;;
21876;SDS011;11103;43.788;23.710;2023-03-31T06:54:55;11.50;;;7.37;;
21876;SDS011;11103;43.788;23.710;2023-03-31T06:57:20;11.83;;;7.47;;
21876;SDS011;11103;43.788;23.710;2023-03-31T06:59:46;16.47;;;8.40;;
21876;SDS011;11103;43.788;23.710;2023-03-31T07:02:11;12.23;;;7.63;;
21876;SDS011;11103;43.788;23.710;2023-03-31T07:04:36;11.00;;;7.23;;
21876;SDS011;11103;43.788;23.710;2023-03-31T07:07:03;11.10;;;7.20;;
21876;SDS011;11103;43.788;23.710;2023-03-31T07:09:28;10.67;;;7.17;;
21876;SDS011;11103;43.788;23.710;2023-03-31T07:11:54;14.90;;;7.10;;
21876;SDS011;11103;43.788;23.710;2023-03-31T07:14:19;13.10;;;8.20;;
21876;SDS011;11103;43.788;23.710;2023-03-31T07:16:46;14.60;;;9.17;;
21876;SDS011;11103;43.788;23.710;2023-03-31T07:19:12;10.57;;;7.70;;
21876;SDS011;11103;43.788;23.710;2023-03-31T07:21:39;11.53;;;7.33;;
21876;SDS011;11103;43.788;23.710;2023-03-31T07:24:04;14.30;;;6.30;;
21876;SDS011;11103;43.788;23.710;2023-03-31T07:26:30;11.70;;;7.10;;
21876;SDS011;11103;43.788;23.710;2023-03-31T07:28:55;10.50;;;6.10;;
21876;SDS011;11103;43.788;23.710;2023-03-31T07:31:21;15.37;;;7.00;;
21876;SDS011;11103;43.788;23.710;2023-03-31T07:33:47;12.50;;;6.17;;
21876;SDS011;11103;43.788;23.710;2023-03-31T07:36:13;9.17;;;5.27;;
21876;SDS011;11103;43.788;23.710;2023-03-31T07:38:39;22.90;;;10.33;;
21876;SDS011;11103;43.788;23.710;2023-03-31T07:41:11;12.30;;;5.20;;
21876;SDS011;11103;43.788;23.710;2023-03-31T07:43:38;10.87;;;5.10;;
21876;SDS011;11103;43.788;23.710;2023-03-31T07:46:04;13.87;;;6.50;;
21876;SDS011;11103;43.788;23.710;2023-03-31T07:48:31;20.10;;;8.90;;
21876;SDS011;11103;43.788;23.710;2023-03-31T07:50:57;12.63;;;6.17;;
21876;SDS011;11103;43.788;23.710;2023-03-31T07:53:23;18.13;;;7.30;;
21876;SDS011;11103;43.788;23.710;2023-03-31T07:55:48;11.80;;;5.77;;
21876;SDS011;11103;43.788;23.710;2023-03-31T07:58:14;23.03;;;8.47;;
21876;SDS011;11103;43.788;23.710;2023-03-31T08:00:39;14.23;;;5.90;;
21876;SDS011;11103;43.788;23.710;2023-03-31T08:03:05;9.40;;;5.10;;
21876;SDS011;11103;43.788;23.710;2023-03-31T08:05:31;13.43;;;5.80;;
21876;SDS011;11103;43.788;23.710;2023-03-31T08:07:56;14.80;;;7.57;;
21876;SDS011;11103;43.788;23.710;2023-03-31T08:10:23;16.63;;;8.53;;
21876;SDS011;11103;43.788;23.710;2023-03-31T08:12:51;6.90;;;4.70;;
21876;SDS011;11103;43.788;23.710;2023-03-31T08:15:16;11.13;;;5.93;;
21876;SDS011;11103;43.788;23.710;2023-03-31T08:17:42;16.30;;;8.77;;
21876;SDS011;11103;43.788;23.710;2023-03-31T08:20:07;20.33;;;9.37;;
21876;SDS011;11103;43.788;23.710;2023-03-31T08:22:34;10.97;;;6.47;;
21876;SDS011;11103;43.788;23.710;2023-03-31T08:25:04;23.13;;;7.43;;
21876;SDS011;11103;43.788;23.710;2023-03-31T08:27:37;11.83;;;6.63;;
21876;SDS011;11103;43.788;23.710;2023-03-31T08:30:05;11.30;;;6.10;;
21876;SDS011;11103;43.788;23.710;2023-03-31T08:32:32;11.97;;;6.10;;
21876;SDS011;11103;43.788;23.710;2023-03-31T08:34:58;17.43;;;8.73;;
21876;SDS011;11103;43.788;23.710;2023-03-31T08:37:24;10.63;;;4.97;;
21876;SDS011;11103;43.788;23.710;2023-03-31T08:39:52;13.37;;;7.63;;
21876;SDS011;11103;43.788;23.710;2023-03-31T08:42:28;20.30;;;7.90;;
21876;SDS011;11103;43.788;23.710;2023-03-31T08:47:57;17.07;;;4.73;;
21876;SDS011;11103;43.788;23.710;2023-03-31T08:50:27;23.00;;;11.73;;
21876;SDS011;11103;43.788;23.710;2023-03-31T08:53:06;20.00;;;8.43;;
21876;SDS011;11103;43.788;23.710;2023-03-31T09:15:15;9.37;;;4.70;;
21876;SDS011;11103;43.788;23.710;2023-03-31T09:17:51;8.03;;;4.43;;
21876;SDS011;11103;43.788;23.710;2023-03-31T09:20:21;6.67;;;3.80;;
21876;SDS011;11103;43.788;23.710;2023-03-31T09:25:31;8.47;;;5.40;;
21876;SDS011;11103;43.788;23.710;2023-03-31T09:28:00;6.43;;;4.50;;
21876;SDS011;11103;43.788;23.710;2023-03-31T09:30:32;7.63;;;4.60;;
21876;SDS011;11103;43.788;23.710;2023-03-31T09:35:36;8.77;;;4.97;;
21876;SDS011;11103;43.788;23.710;2023-03-31T09:38:01;6.87;;;4.77;;
21876;SDS011;11103;43.788;23.710;2023-03-31T09:40:27;11.47;;;5.00;;
21876;SDS011;11103;43.788;23.710;2023-03-31T09:42:55;11.07;;;5.40;;
21876;SDS011;11103;43.788;23.710;2023-03-31T09:45:24;8.47;;;4.87;;
21876;SDS011;11103;43.788;23.710;2023-03-31T09:47:50;9.97;;;5.00;;
21876;SDS011;11103;43.788;23.710;2023-03-31T09:50:19;8.87;;;5.40;;
21876;SDS011;11103;43.788;23.710;2023-03-31T09:52:52;8.20;;;5.00;;
21876;SDS011;11103;43.788;23.710;2023-03-31T09:55:26;6.77;;;4.60;;
21876;SDS011;11103;43.788;23.710;2023-03-31T09:58:14;7.50;;;4.87;;
21876;SDS011;11103;43.788;23.710;2023-03-31T10:00:41;13.13;;;4.90;;
21876;SDS011;11103;43.788;23.710;2023-03-31T10:03:17;10.97;;;4.33;;
21876;SDS011;11103;43.788;23.710;2023-03-31T10:05:50;7.17;;;4.87;;
21876;SDS011;11103;43.788;23.710;2023-03-31T10:08:20;6.37;;;3.97;;
21876;SDS011;11103;43.788;23.710;2023-03-31T10:11:05;7.50;;;4.30;;
21876;SDS011;11103;43.788;23.710;2023-03-31T10:16:27;7.70;;;4.47;;
21876;SDS011;11103;43.788;23.710;2023-03-31T10:22:02;15.10;;;3.87;;
21876;SDS011;11103;43.788;23.710;2023-03-31T10:24:37;7.20;;;3.80;;
21876;SDS011;11103;43.788;23.710;2023-03-31T10:27:05;10.90;;;5.10;;
21876;SDS011;11103;43.788;23.710;2023-03-31T10:29:38;9.07;;;3.70;;
21876;SDS011;11103;43.788;23.710;2023-03-31T10:32:08;5.33;;;3.70;;
21876;SDS011;11103;43.788;23.710;2023-03-31T10:34:41;4.63;;;3.47;;
21876;SDS011;11103;43.788;23.710;2023-03-31T10:37:09;9.47;;;5.53;;
21876;SDS011;11103;43.788;23.710;2023-03-31T10:39:43;8.70;;;5.33;;
21876;SDS011;11103;43.788;23.710;2023-03-31T10:42:17;8.53;;;5.20;;
21876;SDS011;11103;43.788;23.710;2023-03-31T10:44:44;12.67;;;5.73;;
21876;SDS011;11103;43.788;23.710;2023-03-31T10:49:39;7.83;;;4.97;;
21876;SDS011;11103;43.788;23.710;2023-03-31T10:52:25;19.77;;;9.93;;
21876;SDS011;11103;43.788;23.710;2023-03-31T10:55:00;8.63;;;3.80;;
21876;SDS011;11103;43.788;23.710;2023-03-31T10:57:35;13.13;;;6.43;;
21876;SDS011;11103;43.788;23.710;2023-03-31T11:00:19;9.10;;;4.47;;
21876;SDS011;11103;43.788;23.710;2023-03-31T11:06:04;6.73;;;3.83;;
21876;SDS011;11103;43.788;23.710;2023-03-31T11:14:13;8.70;;;4.23;;
21876;SDS011;11103;43.788;23.710;2023-03-31T11:17:20;5.93;;;3.60;;
21876;SDS011;11103;43.788;23.710;2023-03-31T11:22:24;5.63;;;3.60;;
21876;SDS011;11103;43.788;23.710;2023-03-31T11:44:04;6.13;;;4.00;;
21876;SDS011;11103;43.788;23.710;2023-03-31T11:46:33;8.10;;;3.80;;
21876;SDS011;11103;43.788;23.710;2023-03-31T11:56:59;5.80;;;3.70;;
21876;SDS011;11103;43.788;23.710;2023-03-31T11:59:28;4.50;;;3.43;;
21876;SDS011;11103;43.788;23.710;2023-03-31T12:04:47;4.27;;;3.87;;
21876;SDS011;11103;43.788;23.710;2023-03-31T12:09:52;4.83;;;3.67;;
21876;SDS011;11103;43.788;23.710;2023-03-31T12:12:29;6.77;;;3.87;;
21876;SDS011;11103;43.788;23.710;2023-03-31T12:18:15;3.93;;;3.53;;
21876;SDS011;11103;43.788;23.710;2023-03-31T12:20:49;4.80;;;3.40;;
21876;SDS011;11103;43.788;23.710;2023-03-31T12:23:19;5.77;;;3.37;;
21876;SDS011;11103;43.788;23.710;2023-03-31T12:25:57;4.40;;;3.60;;
21876;SDS011;11103;43.788;23.710;2023-03-31T12:28:45;5.70;;;3.57;;
21876;SDS011;11103;43.788;23.710;2023-03-31T12:31:16;5.37;;;3.60;;
21876;SDS011;11103;43.788;23.710;2023-03-31T12:33:46;5.40;;;4.10;;
21876;SDS011;11103;43.788;23.710;2023-03-31T12:39:37;7.23;;;3.70;;
21876;SDS011;11103;43.788;23.710;2023-03-31T12:45:27;7.03;;;4.10;;
21876;SDS011;11103;43.788;23.710;2023-03-31T12:53:49;4.57;;;3.90;;
21876;SDS011;11103;43.788;23.710;2023-03-31T12:59:31;6.50;;;4.07;;
21876;SDS011;11103;43.788;23.710;2023-03-31T13:02:21;4.60;;;3.83;;
21876;SDS011;11103;43.788;23.710;2023-03-31T13:04:50;4.23;;;3.83;;
21876;SDS011;11103;43.788;23.710;2023-03-31T13:09:55;7.50;;;3.50;;
21876;SDS011;11103;43.788;23.710;2023-03-31T13:12:22;6.33;;;3.70;;
21876;SDS011;11103;43.788;23.710;2023-03-31T13:14:51;4.77;;;3.43;;
21876;SDS011;11103;43.788;23.710;2023-03-31T13:17:26;6.40;;;3.60;;
21876;SDS011;11103;43.788;23.710;2023-03-31T13:19:56;7.57;;;3.73;;
21876;SDS011;11103;43.788;23.710;2023-03-31T13:22:41;6.90;;;3.97;;
21876;SDS011;11103;43.788;23.710;2023-03-31T13:25:32;4.50;;;3.80;;
21876;SDS011;11103;43.788;23.710;2023-03-31T13:28:09;6.97;;;4.07;;
21876;SDS011;11103;43.788;23.710;2023-03-31T13:30:50;5.97;;;3.60;;
21876;SDS011;11103;43.788;23.710;2023-03-31T13:35:55;5.43;;;3.30;;
21876;SDS011;11103;43.788;23.710;2023-03-31T13:44:32;4.67;;;3.30;;
21876;SDS011;11103;43.788;23.710;2023-03-31T14:00:50;6.30;;;3.83;;
21876;SDS011;11103;43.788;23.710;2023-03-31T14:04:13;8.50;;;3.83;;
21876;SDS011;11103;43.788;23.710;2023-03-31T14:09:46;6.43;;;3.23;;
21876;SDS011;11103;43.788;23.710;2023-03-31T14:12:21;6.80;;;3.37;;
21876;SDS011;11103;43.788;23.710;2023-03-31T14:14:53;6.77;;;3.40;;
21876;SDS011;11103;43.788;23.710;2023-03-31T14:17:19;4.40;;;3.07;;
21876;SDS011;11103;43.788;23.710;2023-03-31T14:22:45;3.00;;;2.50;;
21876;SDS011;11103;43.788;23.710;2023-03-31T14:25:23;4.63;;;3.20;;
21876;SDS011;11103;43.788;23.710;2023-03-31T14:36:07;5.60;;;4.03;;
21876;SDS011;11103;43.788;23.710;2023-03-31T14:39:00;6.77;;;3.60;;
21876;SDS011;11103;43.788;23.710;2023-03-31T14:41:27;7.67;;;3.37;;
21876;SDS011;11103;43.788;23.710;2023-03-31T14:43:57;3.97;;;2.73;;
21876;SDS011;11103;43.788;23.710;2023-03-31T14:46:28;6.33;;;3.73;;
21876;SDS011;11103;43.788;23.710;2023-03-31T14:48:56;3.80;;;3.17;;
21876;SDS011;11103;43.788;23.710;2023-03-31T14:51:27;5.97;;;3.70;;
21876;SDS011;11103;43.788;23.710;2023-03-31T14:54:03;6.43;;;3.80;;
21876;SDS011;11103;43.788;23.710;2023-03-31T14:56:36;5.53;;;3.73;;
21876;SDS011;11103;43.788;23.710;2023-03-31T14:59:05;7.07;;;3.33;;
21876;SDS011;11103;43.788;23.710;2023-03-31T15:01:32;6.93;;;3.50;;
21876;SDS011;11103;43.788;23.710;2023-03-31T15:04:14;7.57;;;3.83;;
21876;SDS011;11103;43.788;23.710;2023-03-31T15:06:43;7.10;;;3.43;;
21876;SDS011;11103;43.788;23.710;2023-03-31T15:09:13;5.80;;;3.10;;
21876;SDS011;11103;43.788;23.710;2023-03-31T15:11:55;4.20;;;2.87;;
21876;SDS011;11103;43.788;23.710;2023-03-31T15:14:27;6.00;;;3.20;;
21876;SDS011;11103;43.788;23.710;2023-03-31T15:16:55;5.20;;;3.13;;
21876;SDS011;11103;43.788;23.710;2023-03-31T15:19:24;4.87;;;3.73;;
21876;SDS011;11103;43.788;23.710;2023-03-31T15:21:56;7.87;;;4.10;;
21876;SDS011;11103;43.788;23.710;2023-03-31T15:24:38;8.13;;;4.00;;
21876;SDS011;11103;43.788;23.710;2023-03-31T15:29:48;4.97;;;3.30;;
21876;SDS011;11103;43.788;23.710;2023-03-31T15:32:19;9.47;;;5.37;;
21876;SDS011;11103;43.788;23.710;2023-03-31T15:34:51;8.63;;;4.17;;
21876;SDS011;11103;43.788;23.710;2023-03-31T15:37:22;6.73;;;2.80;;
21876;SDS011;11103;43.788;23.710;2023-03-31T15:39:56;5.77;;;2.97;;
21876;SDS011;11103;43.788;23.710;2023-03-31T15:42:25;9.33;;;3.20;;
21876;SDS011;11103;43.788;23.710;2023-03-31T15:47:27;6.13;;;3.77;;
21876;SDS011;11103;43.788;23.710;2023-03-31T15:49:57;7.70;;;4.57;;
21876;SDS011;11103;43.788;23.710;2023-03-31T15:52:33;7.63;;;3.50;;
21876;SDS011;11103;43.788;23.710;2023-03-31T15:55:00;6.00;;;3.00;;
21876;SDS011;11103;43.788;23.710;2023-03-31T15:57:30;4.10;;;2.87;;
21876;SDS011;11103;43.788;23.710;2023-03-31T15:59:58;5.53;;;2.73;;
21876;SDS011;11103;43.788;23.710;2023-03-31T16:02:25;5.83;;;3.63;;
21876;SDS011;11103;43.788;23.710;2023-03-31T16:05:02;7.47;;;3.53;;
21876;SDS011;11103;43.788;23.710;2023-03-31T16:07:32;7.10;;;3.67;;
21876;SDS011;11103;43.788;23.710;2023-03-31T16:10:03;9.87;;;4.47;;
21876;SDS011;11103;43.788;23.710;2023-03-31T16:12:36;18.43;;;12.07;;
21876;SDS011;11103;43.788;23.710;2023-03-31T16:15:16;14.03;;;8.20;;
21876;SDS011;11103;43.788;23.710;2023-03-31T16:17:49;16.13;;;6.60;;
21876;SDS011;11103;43.788;23.710;2023-03-31T16:20:19;15.60;;;5.07;;
21876;SDS011;11103;43.788;23.710;2023-03-31T16:22:49;25.83;;;5.67;;
21876;SDS011;11103;43.788;23.710;2023-03-31T16:25:17;30.00;;;5.70;;
21876;SDS011;11103;43.788;23.710;2023-03-31T16:27:56;16.33;;;5.47;;
21876;SDS011;11103;43.788;23.710;2023-03-31T16:33:04;15.17;;;5.70;;
21876;SDS011;11103;43.788;23.710;2023-03-31T16:35:34;30.27;;;8.00;;
21876;SDS011;11103;43.788;23.710;2023-03-31T16:38:02;38.43;;;7.47;;
21876;SDS011;11103;43.788;23.710;2023-03-31T16:40:29;46.27;;;10.63;;
21876;SDS011;11103;43.788;23.710;2023-03-31T16:43:05;34.37;;;11.13;;
21876;SDS011;11103;43.788;23.710;2023-03-31T16:45:39;17.90;;;9.03;;
21876;SDS011;11103;43.788;23.710;2023-03-31T16:48:05;17.00;;;8.60;;
21876;SDS011;11103;43.788;23.710;2023-03-31T16:50:31;24.20;;;7.93;;
21876;SDS011;11103;43.788;23.710;2023-03-31T16:52:56;28.80;;;7.60;;
21876;SDS011;11103;43.788;23.710;2023-03-31T16:55:22;26.97;;;7.97;;
21876;SDS011;11103;43.788;23.710;2023-03-31T16:57:48;24.33;;;7.30;;
21876;SDS011;11103;43.788;23.710;2023-03-31T17:00:14;16.90;;;7.03;;
21876;SDS011;11103;43.788;23.710;2023-03-31T17:02:40;13.37;;;5.90;;
21876;SDS011;11103;43.788;23.710;2023-03-31T17:05:05;9.20;;;5.70;;
21876;SDS011;11103;43.788;23.710;2023-03-31T17:07:31;14.37;;;5.27;;
21876;SDS011;11103;43.788;23.710;2023-03-31T17:09:57;12.67;;;6.07;;
21876;SDS011;11103;43.788;23.710;2023-03-31T17:12:22;13.53;;;5.83;;
21876;SDS011;11103;43.788;23.710;2023-03-31T17:14:48;10.97;;;5.80;;
21876;SDS011;11103;43.788;23.710;2023-03-31T17:17:13;36.13;;;23.93;;
21876;SDS011;11103;43.788;23.710;2023-03-31T17:19:39;25.97;;;16.73;;
21876;SDS011;11103;43.788;23.710;2023-03-31T17:22:05;17.93;;;7.57;;
21876;SDS011;11103;43.788;23.710;2023-03-31T17:24:30;13.23;;;8.03;;
21876;SDS011;11103;43.788;23.710;2023-03-31T17:26:55;21.63;;;11.07;;
21876;SDS011;11103;43.788;23.710;2023-03-31T17:29:21;42.73;;;19.83;;
21876;SDS011;11103;43.788;23.710;2023-03-31T17:31:47;60.97;;;30.70;;
21876;SDS011;11103;43.788;23.710;2023-03-31T17:34:12;69.27;;;33.10;;
21876;SDS011;11103;43.788;23.710;2023-03-31T17:36:37;34.57;;;17.43;;
21876;SDS011;11103;43.788;23.710;2023-03-31T17:39:03;36.43;;;18.70;;
21876;SDS011;11103;43.788;23.710;2023-03-31T17:41:29;33.90;;;19.53;;
21876;SDS011;11103;43.788;23.710;2023-03-31T17:43:55;70.37;;;36.27;;
21876;SDS011;11103;43.788;23.710;2023-03-31T17:46:21;60.63;;;33.07;;